Lincoln, Rhode Island
Current Conditions -  °F | °C
As of 7:53 PM on Wednesday 22 Oct 2014 (Local Time) from KUUU Reporting Station
Light Rain Light Rain  
Wind Chill: 57°   Ceiling: 600
Heat Index: 57°   Visibility: 7mi
Dew Point: 54°   Wind: 18mph
Humidity: 89%   Direction: 20°NNE
Pressure: 29.67"   Gusts: 33mph
Location:  41.54°N, 71.25°W
Report Text: KUUU 222353Z AUTO 02016G29KT 7SM -RA OVC006 14/12 A2967 RMK AO2 PK WND 02029/2351 SLP046 P0003 60016 T01390122 10139 20117 58040
Loading
Personal Weather Stations






























Interactive Weather Map
Tropical Storm Tracking
New forecast layout! Learn more

10-Day Weather Forecast

Advertisements
Track Severe Weather on mobile